Hlavní strana
METAR-TAF:

METAR-TAF

Letiště :

Dakar, Senegal

zeměpisná šířka: 14-44N, zeměpisná délka: 017-30W, výška: 27 m

Aktuální stav počasí

Zpráva byla vytvořena před 59 minutami, v 09:00 UTC
Severovýchodní vítr 4 kt
Teplota 20°C
Vlhkost vzduchu 83%
Tlak 1013 hPa
Viditelnost 10 km a více
Žádná oblačnost pod 1500 m, nevyskytují se cumulonimby.

METAR: GOOY 250900Z 04004KT CAVOK 20/17 Q1013

Čas: 09:59 (09:59 UTC)

Předpověď počasí

Zpráva byla vytvořena před 10 hodinami a 59 minutami, v 23:00 UTC
Předpověď platná od 25 v 00 UTC do 26 v 06 UTC
Severní vítr 8 kt
Viditelnost 10 km a více
Žádná oblačnost pod 1500 m, nevyskytují se cumulonimby.
Změna
od 25 v 12 UTC do 25 v 14 UTC
Východoseverovýchodní vítr 10 kt
Viditelnost: 4500 m
rozsáhlý prach

TAF: GOOY 242300Z 2500/2606 36008KT CAVOK BECMG 2512/2514 06010KT 4500 DU

Stav a předpovědi počasí z více než 4 000 letišť (zprávy METAR a TAF).

Červené a žluté tečky na mapě představují dostupné meteorologické stanice.

Když kurzor umístíte na tečku, zobrazí se název stanice.

Pak kliknutím zobrazíte stav a předpověď počasí.

Chcete-li změnit mapu, kliknutím na zelené tlačítko se znaménkem +mapu přiblížíte, kliknutím na zelené tlačítko se znaménkem – mapu oddálíte a kliknutím na zelené šipky přejdete na sousední mapy.


METAR-TAF: